Dupont, Colorado
Current Conditions -  °F | °C
As of 7:47 AM on Thursday 23 Oct 2014 (Local Time) from KBJC Reporting Station
Scattered Clouds Scattered Clouds  
Wind Chill: 46°   Ceiling: Unl
Heat Index: 46°   Visibility: 70mi
Dew Point: 36°   Wind: 3mph
Humidity: 66%   Direction: 210°SSW
Pressure: 30.18"   Gusts: NA
Location:  39.84°N, 104.91°W
Report Text: KBJC 231347Z 21003KT 70SM FEW080 SCT120 08/02 A3018
Loading
Personal Weather Stations






























Interactive Weather Map
Tropical Storm Tracking
New forecast layout! Learn more

10-Day Weather Forecast

Advertisements
Track Severe Weather on mobile